createdAt,value
2022-11-26T00:01:01.740Z,83.06
2022-11-26T00:03:29.026Z,83.18
2022-11-26T00:05:57.898Z,83.46
2022-11-26T00:08:33.598Z,83.96
2022-11-26T00:11:03.412Z,83.99
2022-11-26T00:13:31.892Z,83.61
2022-11-26T00:15:59.140Z,83.56
2022-11-26T00:18:26.786Z,83.74
2022-11-26T00:20:56.199Z,84.28
2022-11-26T00:23:25.470Z,84.04
2022-11-26T00:25:58.297Z,84.34
2022-11-26T00:28:30.739Z,84.42
2022-11-26T00:31:00.040Z,83.81
2022-11-26T00:33:28.772Z,83.24
2022-11-26T00:35:59.389Z,83.32
2022-11-26T00:38:26.591Z,83.40
2022-11-26T00:40:53.807Z,82.71
2022-11-26T00:43:21.083Z,83.34
2022-11-26T00:45:50.453Z,83.70
2022-11-26T00:48:18.032Z,83.99
2022-11-26T00:50:48.438Z,84.81
2022-11-26T00:53:18.194Z,84.59
2022-11-26T00:55:48.069Z,84.18
2022-11-26T00:58:28.030Z,84.57
2022-11-26T01:01:00.213Z,84.30
2022-11-26T01:03:27.513Z,84.29
2022-11-26T01:05:57.874Z,84.07
2022-11-26T01:08:35.450Z,84.44
2022-11-26T01:11:04.709Z,84.68
2022-11-26T01:13:32.801Z,84.81
2022-11-26T01:16:01.250Z,84.91
2022-11-26T01:18:29.145Z,84.57
2022-11-26T01:20:56.405Z,84.56
2022-11-26T01:23:23.665Z,84.52
2022-11-26T01:25:50.832Z,85.04
2022-11-26T01:28:19.371Z,85.72
2022-11-26T01:30:46.638Z,85.62
2022-11-26T01:33:13.938Z,85.74
2022-11-26T01:35:41.177Z,85.25
2022-11-26T01:38:12.865Z,85.16
2022-11-26T01:40:49.646Z,85.58
2022-11-26T01:43:25.269Z,86.14
2022-11-26T01:45:52.570Z,85.92
2022-11-26T01:48:28.719Z,86.15
2022-11-26T01:51:07.198Z,85.59
2022-11-26T01:54:11.986Z,85.52
2022-11-26T01:56:41.715Z,85.87
2022-11-26T01:59:28.366Z,85.99
2022-11-26T02:01:58.030Z,85.56
2022-11-26T02:04:27.506Z,85.48
2022-11-26T02:06:56.434Z,85.47
2022-11-26T02:09:24.389Z,85.78
2022-11-26T02:11:51.860Z,86.13
2022-11-26T02:14:21.991Z,85.74
2022-11-26T02:17:21.370Z,86.06
2022-11-26T02:20:19.939Z,86.19
2022-11-26T02:22:49.918Z,86.16
2022-11-26T02:25:48.060Z,85.96
2022-11-26T02:28:43.050Z,86.31
2022-11-26T02:31:47.957Z,86.15
2022-11-26T02:34:18.388Z,85.79
2022-11-26T02:36:55.701Z,86.14
2022-11-26T02:39:25.282Z,85.53
2022-11-26T02:41:58.309Z,85.13
2022-11-26T02:44:32.524Z,85.76
2022-11-26T02:47:05.214Z,86.40
2022-11-26T02:49:33.539Z,86.92
2022-11-26T02:52:03.665Z,86.95
2022-11-26T02:54:30.748Z,87.62
2022-11-26T02:56:58.305Z,87.73
2022-11-26T02:59:26.064Z,87.06
2022-11-26T03:02:03.812Z,87.07
2022-11-26T03:04:34.872Z,87.86
2022-11-26T03:07:04.402Z,87.76
2022-11-26T03:09:42.889Z,87.33
2022-11-26T03:12:11.105Z,87.08
2022-11-26T03:14:38.764Z,86.89
2022-11-26T03:17:06.238Z,86.99
2022-11-26T03:19:33.511Z,86.32
2022-11-26T03:22:00.720Z,86.37
2022-11-26T03:24:27.875Z,86.10
2022-11-26T03:26:55.087Z,86.19
2022-11-26T03:29:22.276Z,85.99
2022-11-26T03:31:49.621Z,85.67
2022-11-26T03:34:16.930Z,85.20
2022-11-26T03:36:44.382Z,85.09
2022-11-26T03:39:11.620Z,84.82
2022-11-26T03:41:39.325Z,84.68
2022-11-26T03:44:06.519Z,84.64
2022-11-26T03:46:33.732Z,84.59
2022-11-26T03:49:00.928Z,84.41
2022-11-26T03:51:28.221Z,84.05
2022-11-26T03:53:55.439Z,83.51
2022-11-26T03:56:22.670Z,83.46
2022-11-26T03:58:49.937Z,83.81
2022-11-26T04:01:17.206Z,84.23
2022-11-26T04:03:44.514Z,84.25
2022-11-26T04:06:12.766Z,84.24
2022-11-26T04:08:39.980Z,84.02
2022-11-26T04:11:07.173Z,84.00
2022-11-26T04:13:34.734Z,84.47
2022-11-26T04:16:01.933Z,84.78
2022-11-26T04:18:29.148Z,84.70
2022-11-26T04:20:56.480Z,84.62
2022-11-26T04:23:23.658Z,84.14
2022-11-26T04:25:50.904Z,83.63
2022-11-26T04:28:18.119Z,83.25
2022-11-26T04:30:45.361Z,83.33
2022-11-26T04:33:12.581Z,83.67
2022-11-26T04:35:39.839Z,83.76
2022-11-26T04:38:07.153Z,84.00
2022-11-26T04:40:34.534Z,84.13
2022-11-26T04:43:01.819Z,84.50
2022-11-26T04:45:29.244Z,85.13
2022-11-26T04:47:56.567Z,85.21
2022-11-26T04:50:24.168Z,84.40
2022-11-26T04:52:51.395Z,83.61
2022-11-26T04:55:18.937Z,83.42
2022-11-26T04:57:49.065Z,83.96
2022-11-26T05:00:16.955Z,84.34
2022-11-26T05:02:44.343Z,84.47
2022-11-26T05:05:13.060Z,85.10
2022-11-26T05:07:40.782Z,86.33
2022-11-26T05:10:08.914Z,86.64
2022-11-26T05:12:36.815Z,85.71
2022-11-26T05:15:04.480Z,85.55
2022-11-26T05:17:32.502Z,85.02
2022-11-26T05:19:59.655Z,85.23
2022-11-26T05:22:26.908Z,85.00
2022-11-26T05:24:54.195Z,84.65
2022-11-26T05:27:21.417Z,84.73
2022-11-26T05:29:48.652Z,86.30
2022-11-26T05:32:16.160Z,87.43
2022-11-26T05:34:43.363Z,87.32
2022-11-26T05:37:10.803Z,86.47
2022-11-26T05:39:38.008Z,86.08
2022-11-26T05:42:09.299Z,85.72
2022-11-26T05:44:37.953Z,85.69
2022-11-26T05:47:05.479Z,85.96
2022-11-26T05:49:32.871Z,86.27
2022-11-26T05:52:00.189Z,86.14
2022-11-26T05:54:27.374Z,85.59
2022-11-26T05:56:59.956Z,85.00
2022-11-26T05:59:27.881Z,84.68
2022-11-26T06:01:55.123Z,84.45
2022-11-26T06:04:22.678Z,84.43
2022-11-26T06:06:50.092Z,84.90
2022-11-26T06:09:17.359Z,84.63
2022-11-26T06:11:44.575Z,83.96
2022-11-26T06:14:12.157Z,83.21
2022-11-26T06:16:39.431Z,83.86
2022-11-26T06:19:06.752Z,84.01
2022-11-26T06:21:34.076Z,83.77
2022-11-26T06:24:01.274Z,83.73
2022-11-26T06:26:28.547Z,83.20
2022-11-26T06:28:55.727Z,82.20
2022-11-26T06:31:23.039Z,82.45
2022-11-26T06:33:55.153Z,81.82
2022-11-26T06:36:23.227Z,82.39
2022-11-26T06:38:50.599Z,83.15
2022-11-26T06:41:20.829Z,83.35
2022-11-26T06:43:48.180Z,83.65
2022-11-26T06:46:15.620Z,84.10
2022-11-26T06:48:43.064Z,83.99
2022-11-26T06:51:13.464Z,84.05
2022-11-26T06:53:41.077Z,83.85
2022-11-26T06:56:17.750Z,83.53
2022-11-26T06:58:46.928Z,82.84
2022-11-26T07:01:17.227Z,83.48
2022-11-26T07:03:44.680Z,83.32
2022-11-26T07:06:20.413Z,83.26
2022-11-26T07:08:48.626Z,83.02
2022-11-26T07:11:16.576Z,83.15
2022-11-26T07:13:43.941Z,83.77
2022-11-26T07:16:11.497Z,83.61
2022-11-26T07:18:38.904Z,84.65
2022-11-26T07:21:11.696Z,84.94
2022-11-26T07:23:39.720Z,85.50
2022-11-26T07:26:07.988Z,85.20
2022-11-26T07:28:35.893Z,84.75
2022-11-26T07:31:05.444Z,84.56
2022-11-26T07:33:32.719Z,84.90
2022-11-26T07:36:08.467Z,84.63
2022-11-26T07:38:35.748Z,83.84
2022-11-26T07:41:04.997Z,83.70
2022-11-26T07:43:34.889Z,83.59
2022-11-26T07:46:03.577Z,83.81
2022-11-26T07:48:31.930Z,83.49
2022-11-26T07:51:00.049Z,82.78
2022-11-26T07:53:32.050Z,82.29
2022-11-26T07:55:59.312Z,82.91
2022-11-26T07:58:29.308Z,83.34
2022-11-26T08:00:56.547Z,83.88
2022-11-26T08:03:23.707Z,84.23
2022-11-26T08:05:51.164Z,83.93
2022-11-26T08:08:18.383Z,83.32
2022-11-26T08:10:45.590Z,83.03
2022-11-26T08:13:13.038Z,83.99
2022-11-26T08:15:40.250Z,84.29
2022-11-26T08:18:07.461Z,84.57
2022-11-26T08:20:34.674Z,84.12
2022-11-26T08:23:01.909Z,83.82
2022-11-26T08:25:29.315Z,83.64
2022-11-26T08:27:56.591Z,83.79
2022-11-26T08:30:23.815Z,84.44
2022-11-26T08:32:51.167Z,83.34
2022-11-26T08:35:18.396Z,83.13
2022-11-26T08:37:45.554Z,82.36
2022-11-26T08:40:14.165Z,83.05
2022-11-26T08:42:41.777Z,81.99
2022-11-26T08:45:09.316Z,82.71
2022-11-26T08:47:36.519Z,82.33
2022-11-26T08:50:04.864Z,83.73
2022-11-26T08:52:32.075Z,84.20
2022-11-26T08:54:59.455Z,84.83
2022-11-26T08:57:26.748Z,85.37
2022-11-26T08:59:55.921Z,86.47
2022-11-26T09:02:23.495Z,85.93
2022-11-26T09:04:50.729Z,83.60
2022-11-26T09:07:18.015Z,82.83
2022-11-26T09:09:45.331Z,82.63
2022-11-26T09:12:12.589Z,82.06
2022-11-26T09:14:40.899Z,81.58
2022-11-26T09:17:09.950Z,81.40
2022-11-26T09:19:37.121Z,81.53
2022-11-26T09:22:04.495Z,81.53
2022-11-26T09:24:31.730Z,82.56
2022-11-26T09:27:04.152Z,83.58
2022-11-26T09:29:34.605Z,83.91
2022-11-26T09:32:22.531Z,84.65
2022-11-26T09:34:49.009Z,84.67
2022-11-26T09:37:16.179Z,85.78
2022-11-26T09:39:43.453Z,86.54
2022-11-26T09:42:23.066Z,86.32
2022-11-26T09:44:57.224Z,86.17
2022-11-26T09:47:28.971Z,85.88
2022-11-26T09:49:59.536Z,87.16
2022-11-26T09:52:31.101Z,87.14
2022-11-26T09:55:10.218Z,87.18
2022-11-26T09:58:05.172Z,87.09
2022-11-26T10:00:42.468Z,85.66
2022-11-26T10:03:16.237Z,85.70
2022-11-26T10:05:55.866Z,85.34
2022-11-26T10:09:00.923Z,86.23
2022-11-26T10:11:49.108Z,86.31
2022-11-26T10:14:44.330Z,86.62
2022-11-26T10:17:11.799Z,87.60
2022-11-26T10:19:58.143Z,87.61
2022-11-26T10:22:34.437Z,87.51
2022-11-26T10:25:03.859Z,87.70
2022-11-26T10:27:34.110Z,87.80
2022-11-26T10:30:02.629Z,88.71
2022-11-26T10:32:39.359Z,88.13
2022-11-26T10:35:07.156Z,87.77
2022-11-26T10:37:34.426Z,88.13
2022-11-26T10:40:20.214Z,88.99
2022-11-26T10:43:02.059Z,89.19
2022-11-26T10:45:40.984Z,90.27
2022-11-26T10:48:14.671Z,89.98
2022-11-26T10:50:48.042Z,89.56
2022-11-26T10:53:21.402Z,89.05
2022-11-26T10:55:49.706Z,89.53
2022-11-26T10:58:20.580Z,90.48
2022-11-26T11:00:50.818Z,89.81
2022-11-26T11:03:38.164Z,89.99
2022-11-26T11:06:12.832Z,90.39
2022-11-26T11:08:40.084Z,90.14
2022-11-26T11:11:19.097Z,90.96
2022-11-26T11:13:47.520Z,89.83
2022-11-26T11:16:20.249Z,88.94
2022-11-26T11:18:58.841Z,88.79
2022-11-26T11:21:34.249Z,88.17
2022-11-26T11:24:09.250Z,87.97
2022-11-26T11:27:03.172Z,88.45
2022-11-26T11:29:35.344Z,88.70
2022-11-26T11:32:05.702Z,88.69
2022-11-26T11:34:42.455Z,88.46
2022-11-26T11:37:20.852Z,88.61
2022-11-26T11:40:04.396Z,89.31
2022-11-26T11:42:32.521Z,89.97
2022-11-26T11:45:00.594Z,90.16
2022-11-26T11:47:31.227Z,89.88
2022-11-26T11:50:20.264Z,88.77
2022-11-26T11:53:14.878Z,89.17
2022-11-26T11:55:50.749Z,89.03
2022-11-26T11:58:23.951Z,88.84
2022-11-26T12:01:00.169Z,88.38
2022-11-26T12:03:45.711Z,89.13
2022-11-26T12:09:39.197Z,87.87
2022-11-26T12:12:26.587Z,88.41
2022-11-26T12:15:00.647Z,88.56
2022-11-26T12:17:36.060Z,87.71
2022-11-26T12:20:08.967Z,87.77
2022-11-26T12:22:48.275Z,87.81
2022-11-26T12:25:36.673Z,89.02
2022-11-26T12:28:22.678Z,89.86
2022-11-26T12:31:01.598Z,90.21
2022-11-26T12:33:35.886Z,89.90
2022-11-26T12:36:12.504Z,89.34
2022-11-26T12:38:45.414Z,89.60
2022-11-26T12:41:52.625Z,89.17
2022-11-26T12:44:41.568Z,89.21
2022-11-26T12:47:38.096Z,89.02
2022-11-26T12:50:05.668Z,88.75
2022-11-26T12:52:42.347Z,88.67
2022-11-26T12:56:00.863Z,88.83
2022-11-26T12:58:46.336Z,89.90
2022-11-26T13:01:13.695Z,90.04
2022-11-26T13:03:41.477Z,89.36
2022-11-26T13:06:14.674Z,88.70
2022-11-26T13:09:09.280Z,88.35
2022-11-26T13:11:39.486Z,89.47
2022-11-26T13:14:12.454Z,89.17
2022-11-26T13:17:01.971Z,89.97
2022-11-26T13:19:41.962Z,90.39
2022-11-26T13:22:18.374Z,89.80
2022-11-26T13:24:53.269Z,90.15
2022-11-26T13:27:58.238Z,88.93
2022-11-26T13:30:38.938Z,89.16
2022-11-26T13:33:27.126Z,89.16
2022-11-26T13:36:24.312Z,88.82
2022-11-26T13:39:10.344Z,88.32
2022-11-26T13:41:56.168Z,87.78
2022-11-26T13:45:00.928Z,88.18
2022-11-26T13:47:30.936Z,88.13
2022-11-26T13:50:13.220Z,87.34
2022-11-26T13:52:53.732Z,87.50
2022-11-26T13:55:37.632Z,87.44
2022-11-26T13:58:06.414Z,86.78
2022-11-26T14:00:35.338Z,87.69
2022-11-26T14:03:03.340Z,88.25
2022-11-26T14:05:48.849Z,87.40
2022-11-26T14:08:36.551Z,86.77
2022-11-26T14:11:04.263Z,86.51
2022-11-26T14:13:31.750Z,86.76
2022-11-26T14:16:09.600Z,88.58
2022-11-26T14:18:49.206Z,89.16
2022-11-26T14:21:17.632Z,89.04
2022-11-26T14:23:47.572Z,88.86
2022-11-26T14:26:31.298Z,89.33
2022-11-26T14:29:07.696Z,89.53
2022-11-26T14:31:38.470Z,91.93
2022-11-26T14:34:19.102Z,62.71
2022-11-26T14:36:55.444Z,56.37
2022-11-26T14:39:22.741Z,63.75
2022-11-26T14:41:53.984Z,68.31
2022-11-26T14:44:23.066Z,72.83
2022-11-26T14:46:54.239Z,76.72
2022-11-26T14:49:21.398Z,79.47
2022-11-26T14:51:53.437Z,81.30
2022-11-26T14:54:35.468Z,82.02
2022-11-26T14:57:32.077Z,83.75
2022-11-26T15:00:01.461Z,84.95
2022-11-26T15:02:30.861Z,84.82
2022-11-26T15:05:00.622Z,84.68
2022-11-26T15:07:29.415Z,84.19
2022-11-26T15:10:06.558Z,85.39
2022-11-26T15:12:35.478Z,85.89
2022-11-26T15:15:03.756Z,85.62
2022-11-26T15:17:34.157Z,85.62
2022-11-26T15:20:05.332Z,85.44
2022-11-26T15:22:40.378Z,86.06
2022-11-26T15:25:22.378Z,86.37
2022-11-26T15:28:01.771Z,86.05
2022-11-26T15:30:31.873Z,84.69
2022-11-26T15:33:02.130Z,84.92
2022-11-26T15:35:30.324Z,85.53
2022-11-26T15:37:57.658Z,85.64
2022-11-26T15:40:31.876Z,85.83
2022-11-26T15:43:06.550Z,86.72
2022-11-26T15:45:39.481Z,86.66
2022-11-26T15:48:27.087Z,86.88
2022-11-26T15:50:57.491Z,87.14
2022-11-26T15:53:28.539Z,87.65
2022-11-26T15:55:56.184Z,88.03
2022-11-26T15:58:33.381Z,89.05
2022-11-26T16:01:02.303Z,89.81
2022-11-26T16:03:36.176Z,89.65
2022-11-26T16:06:06.694Z,90.64
2022-11-26T16:08:34.508Z,91.05
2022-11-26T16:11:04.644Z,90.98
2022-11-26T16:13:32.471Z,90.31
2022-11-26T16:16:01.526Z,90.08
2022-11-26T16:18:35.339Z,89.87
2022-11-26T16:21:16.962Z,89.35
2022-11-26T16:23:52.221Z,88.21
2022-11-26T16:26:19.795Z,87.53
2022-11-26T16:28:47.553Z,87.70
2022-11-26T16:31:15.595Z,88.44
2022-11-26T16:33:43.220Z,87.78
2022-11-26T16:36:16.946Z,86.90
2022-11-26T16:38:44.308Z,86.70
2022-11-26T16:41:13.027Z,86.38
2022-11-26T16:43:40.381Z,86.28
2022-11-26T16:46:14.230Z,86.55
2022-11-26T16:48:42.506Z,86.12
2022-11-26T16:51:09.896Z,85.48
2022-11-26T16:53:37.362Z,84.98
2022-11-26T16:56:05.462Z,85.70
2022-11-26T16:58:35.197Z,85.72
2022-11-26T17:01:02.701Z,87.09
2022-11-26T17:03:33.128Z,87.56
2022-11-26T17:06:03.537Z,87.03
2022-11-26T17:08:30.837Z,88.00
2022-11-26T17:10:58.176Z,88.30
2022-11-26T17:13:25.426Z,87.64
2022-11-26T17:15:52.683Z,86.99
2022-11-26T17:18:22.414Z,86.82
2022-11-26T17:20:50.715Z,87.36
2022-11-26T17:23:18.282Z,87.70
2022-11-26T17:25:46.910Z,87.49
2022-11-26T17:28:15.042Z,86.08
2022-11-26T17:30:43.676Z,86.38
2022-11-26T17:33:11.203Z,86.82
2022-11-26T17:35:38.968Z,87.77
2022-11-26T17:38:18.151Z,87.88
2022-11-26T17:40:46.330Z,87.12
2022-11-26T17:43:14.088Z,86.90
2022-11-26T17:45:41.850Z,86.75
2022-11-26T17:48:13.531Z,86.93
2022-11-26T17:50:41.357Z,88.14
2022-11-26T17:53:08.658Z,89.08
2022-11-26T17:55:35.923Z,88.78
2022-11-26T17:58:03.144Z,88.35
2022-11-26T18:00:30.810Z,87.75
2022-11-26T18:02:58.370Z,87.13
2022-11-26T18:05:25.861Z,86.13
2022-11-26T18:07:53.206Z,86.00
2022-11-26T18:10:21.951Z,85.76
2022-11-26T18:12:51.850Z,85.88
2022-11-26T18:15:23.861Z,86.58
2022-11-26T18:17:53.638Z,87.31
2022-11-26T18:20:27.790Z,87.10
2022-11-26T18:22:57.436Z,86.91
2022-11-26T18:25:25.252Z,86.73
2022-11-26T18:27:52.930Z,86.81
2022-11-26T18:30:21.015Z,87.56
2022-11-26T18:32:48.315Z,87.33
2022-11-26T18:35:15.525Z,88.31
2022-11-26T18:37:43.066Z,87.85
2022-11-26T18:40:13.453Z,87.50
2022-11-26T18:42:40.848Z,87.92
2022-11-26T18:45:09.885Z,88.28
2022-11-26T18:47:37.692Z,88.66
2022-11-26T18:50:06.044Z,87.59
2022-11-26T18:52:33.503Z,87.37
2022-11-26T18:55:04.547Z,87.52
2022-11-26T18:57:32.418Z,86.80
2022-11-26T18:59:59.692Z,88.62
2022-11-26T19:02:27.372Z,89.06
2022-11-26T19:04:54.609Z,88.15
2022-11-26T19:07:22.001Z,87.54
2022-11-26T19:09:49.386Z,87.21
2022-11-26T19:12:16.548Z,87.13
2022-11-26T19:14:43.885Z,87.46
2022-11-26T19:17:11.222Z,87.98
2022-11-26T19:19:38.789Z,88.46
2022-11-26T19:22:06.261Z,89.33
2022-11-26T19:24:33.569Z,89.06
2022-11-26T19:27:00.782Z,88.13
2022-11-26T19:29:28.032Z,87.88
2022-11-26T19:31:55.231Z,87.65
2022-11-26T19:34:22.500Z,87.09
2022-11-26T19:36:50.281Z,86.70
2022-11-26T19:39:18.289Z,86.43
2022-11-26T19:41:45.591Z,87.38
2022-11-26T19:44:12.824Z,87.58
2022-11-26T19:46:41.412Z,86.80
2022-11-26T19:49:12.257Z,85.83
2022-11-26T19:51:40.169Z,86.02
2022-11-26T19:54:07.627Z,85.86
2022-11-26T19:56:35.285Z,86.05
2022-11-26T19:59:03.252Z,85.91
2022-11-26T20:01:32.273Z,86.26
2022-11-26T20:04:01.462Z,86.43
2022-11-26T20:06:30.207Z,85.06
2022-11-26T20:09:00.693Z,85.65
2022-11-26T20:11:29.035Z,85.96
2022-11-26T20:13:57.443Z,86.25
2022-11-26T20:16:27.114Z,85.80
2022-11-26T20:18:55.273Z,85.31
2022-11-26T20:21:26.069Z,86.36
2022-11-26T20:23:54.765Z,86.58
2022-11-26T20:26:27.942Z,85.93
2022-11-26T20:28:56.990Z,85.80
2022-11-26T20:31:24.640Z,86.06
2022-11-26T20:33:53.125Z,85.47
2022-11-26T20:36:22.879Z,86.60
2022-11-26T20:38:55.022Z,87.23
2022-11-26T20:41:23.705Z,87.61
2022-11-26T20:43:56.565Z,87.23
2022-11-26T20:46:26.364Z,86.18
2022-11-26T20:48:53.820Z,88.12
2022-11-26T20:51:22.144Z,88.07
2022-11-26T20:53:50.914Z,87.31
2022-11-26T20:56:21.646Z,85.80
2022-11-26T20:58:49.683Z,85.06
2022-11-26T21:01:24.445Z,86.18
2022-11-26T21:03:52.817Z,86.87
2022-11-26T21:06:29.030Z,86.87
2022-11-26T21:08:59.731Z,86.43
2022-11-26T21:11:30.212Z,86.65
2022-11-26T21:13:58.710Z,86.64
2022-11-26T21:16:26.145Z,85.61
2022-11-26T21:18:54.724Z,84.38
2022-11-26T21:21:23.141Z,83.50
2022-11-26T21:23:50.834Z,83.53
2022-11-26T21:26:20.147Z,83.18
2022-11-26T21:28:55.527Z,82.38
2022-11-26T21:31:23.200Z,82.36
2022-11-26T21:33:59.003Z,81.84
2022-11-26T21:36:27.010Z,83.64
2022-11-26T21:38:54.306Z,84.93
2022-11-26T21:41:22.237Z,84.55
2022-11-26T21:43:49.754Z,84.78
2022-11-26T21:46:23.115Z,85.28
2022-11-26T21:48:52.973Z,85.51
2022-11-26T21:51:20.476Z,85.66
2022-11-26T21:53:49.624Z,85.12
2022-11-26T21:56:19.384Z,84.73
2022-11-26T21:58:46.849Z,84.24
2022-11-26T22:01:33.890Z,84.49
2022-11-26T22:04:09.568Z,86.08
2022-11-26T22:06:37.132Z,84.92
2022-11-26T22:09:05.235Z,85.55
2022-11-26T22:11:35.911Z,85.94
2022-11-26T22:14:04.249Z,86.10
2022-11-26T22:16:31.594Z,85.99
2022-11-26T22:19:00.059Z,85.73
2022-11-26T22:21:34.405Z,86.48
2022-11-26T22:24:03.550Z,85.80
2022-11-26T22:26:32.015Z,87.04
2022-11-26T22:28:59.767Z,88.25
2022-11-26T22:31:35.604Z,88.59
2022-11-26T22:34:14.105Z,87.96
2022-11-26T22:36:43.619Z,87.31
2022-11-26T22:39:13.253Z,86.80
2022-11-26T22:41:41.174Z,86.32
2022-11-26T22:44:09.128Z,85.20
2022-11-26T22:46:38.435Z,85.09
2022-11-26T22:49:07.891Z,84.60
2022-11-26T22:51:35.336Z,85.22
2022-11-26T22:54:05.578Z,86.69
2022-11-26T22:56:33.585Z,87.45
2022-11-26T22:59:01.481Z,87.56
2022-11-26T23:01:31.500Z,86.90
2022-11-26T23:04:00.779Z,86.49
2022-11-26T23:06:29.438Z,86.46
2022-11-26T23:08:58.474Z,86.41
2022-11-26T23:11:28.894Z,85.40
2022-11-26T23:13:56.746Z,85.36
2022-11-26T23:16:25.523Z,85.36
2022-11-26T23:18:56.831Z,85.27
2022-11-26T23:21:33.072Z,84.57
2022-11-26T23:24:00.811Z,85.45
2022-11-26T23:26:30.590Z,85.80
2022-11-26T23:28:59.522Z,86.20
2022-11-26T23:31:29.945Z,86.04
2022-11-26T23:33:57.697Z,85.84
2022-11-26T23:36:25.991Z,86.59
2022-11-26T23:38:54.024Z,86.13
2022-11-26T23:41:21.741Z,86.59
2022-11-26T23:43:48.990Z,87.02
2022-11-26T23:46:19.304Z,86.10
2022-11-26T23:48:47.492Z,85.45
2022-11-26T23:51:17.788Z,85.27
2022-11-26T23:53:46.151Z,85.88
2022-11-26T23:56:19.061Z,86.13
2022-11-26T23:58:51.039Z,85.19
